Time;durP1;ratioP1;P1;durP2;ratioP2;P2;SDS_P1;SDS_P2;PMS_P1;PMS_P2;Temp;Humidity;BMP_temperature;BMP_pressure;BME280_temperature;BME280_humidity;BME280_pressure;Samples;Min_cycle;Max_cycle;Signal;HPM_P1;HPM_P2
2022/12/08 00:00:43;;;;;;;;;;;;;;;-143.57;100.00;51402.38;5062808;28;20035;-67
2022/12/08 00:03:09;;;;;;;;;;;;;;;-143.57;100.00;51402.38;5063262;28;21250;-67
2022/12/08 00:11:11;;;;;;;;;;;;;;;-143.57;100.00;51376.53;5058770;28;19928;-66
2022/12/08 00:13:38;;;;;;;;;;;;;;;-143.57;100.00;51398.41;5061180;28;20771;-67
2022/12/08 00:16:04;;;;;;;;;;;;;;;-143.57;100.00;51450.09;5057746;28;19971;-67
2022/12/08 00:18:31;;;;;;;;;;;;;;;-143.57;100.00;51406.34;5067933;28;20444;-67
2022/12/08 00:20:58;;;;;;;;;;;;;;;-143.57;100.00;51426.25;5063515;28;19935;-67
2022/12/08 00:23:24;;;;;;;;;;;;;;;-143.57;100.00;51414.31;5062000;28;20267;-67
2022/12/08 00:25:51;;;;;;;;;;;;;;;-143.57;100.00;51398.41;5065872;28;19956;-67
2022/12/08 00:28:18;;;;;;;;;;;;;;;-143.57;100.00;51426.25;5063704;28;19925;-67
2022/12/08 00:30:44;;;;;;;;;;;;;;;-143.57;100.00;51384.50;5062201;28;19928;-67
2022/12/08 00:33:11;;;;;;;;;;;;;;;-143.57;100.00;51398.41;5058450;28;19924;-67
2022/12/08 00:35:38;;;;;;;;;;;;;;;-143.57;100.00;51406.34;5060220;28;20772;-67
2022/12/08 00:38:08;;;;;;;;;;;;;;;-143.57;100.00;51434.19;5062924;28;20019;-67
2022/12/08 00:40:35;;;;;;;;;;;;;;;-143.57;100.00;51414.31;5064599;28;19986;-66
2022/12/08 00:43:02;;;;;;;;;;;;;;;-143.57;100.00;51370.56;5056801;28;20104;-66
2022/12/08 00:45:28;;;;;;;;;;;;;;;-143.57;100.00;51434.19;5061501;28;19932;-66
2022/12/08 00:47:55;;;;;;;;;;;;;;;-143.57;100.00;51430.22;5061743;28;19928;-66
2022/12/08 00:50:22;;;;;;;;;;;;;;;-143.57;100.00;51396.41;5064999;28;19964;-66
2022/12/08 00:52:48;;;;;;;;;;;;;;;-143.57;100.00;51402.38;5061364;28;20539;-65
2022/12/08 00:55:15;;;;;;;;;;;;;;;-143.57;100.00;51434.19;5073809;28;20329;-67
2022/12/08 00:57:42;;;;;;;;;;;;;;;-143.57;100.00;51406.34;5070381;28;19928;-65
2022/12/08 01:00:08;;;;;;;;;;;;;;;-143.57;100.00;51386.47;5069854;28;20371;-66
2022/12/08 01:02:35;;;;;;;;;;;;;;;-143.57;100.00;51390.47;5070881;28;20394;-66
2022/12/08 01:05:02;;;;;;;;;;;;;;;-143.57;100.00;51414.31;5064579;28;19932;-66
2022/12/08 01:07:29;;;;;;;;;;;;;;;-143.57;100.00;51398.41;5074476;28;19924;-67
2022/12/08 01:09:56;;;;;;;;;;;;;;;-143.57;100.00;51406.34;5065963;28;19928;-66
2022/12/08 01:12:23;;;;;;;;;;;;;;;-143.57;100.00;51406.34;5070696;28;19924;-66
2022/12/08 01:14:50;;;;;;;;;;;;;;;-143.57;100.00;51396.41;5067249;28;20214;-66
2022/12/08 01:17:16;;;;;;;;;;;;;;;-143.57;100.00;51422.25;5063854;28;19936;-66
2022/12/08 01:19:43;;;;;;;;;;;;;;;-143.57;100.00;51414.31;5065041;28;20355;-67
2022/12/08 01:22:10;;;;;;;;;;;;;;;-143.57;100.00;51402.38;5072132;28;19985;-67
2022/12/08 01:24:36;;;;;;;;;;;;;;;-143.57;100.00;51410.34;5064513;28;20005;-67
2022/12/08 01:27:03;;;;;;;;;;;;;;;-143.57;100.00;51466.00;5068499;28;19960;-67
2022/12/08 01:29:30;;;;;;;;;;;;;;;-143.57;100.00;51422.25;5064050;28;20417;-67
2022/12/08 01:31:57;;;;;;;;;;;;;;;-143.57;100.00;51418.28;5070406;28;19933;-68
2022/12/08 01:34:23;;;;;;;;;;;;;;;-143.57;100.00;51446.13;5069497;28;19928;-67
2022/12/08 01:36:50;;;;;;;;;;;;;;;-143.57;100.00;51414.31;5067814;28;19928;-67
2022/12/08 01:39:17;;;;;;;;;;;;;;;-143.57;100.00;51430.22;5065113;28;19929;-67
2022/12/08 01:41:45;;;;;;;;;;;;;;;-143.57;100.00;51450.09;5063327;28;19924;-67
2022/12/08 01:44:12;;;;;;;;;;;;;;;-143.57;100.00;51410.34;5066425;28;19931;-67
2022/12/08 01:46:40;;;;;;;;;;;;;;;-143.57;100.00;51434.19;5065333;28;20005;-67
2022/12/08 01:49:12;;;;;;;;;;;;;;;-143.57;100.00;51434.19;5065056;28;19960;-67
2022/12/08 01:52:05;;;;;;;;;;;;;;;-143.57;100.00;51422.25;5071113;28;20595;-66
2022/12/08 01:54:44;;;;;;;;;;;;;;;-143.57;100.00;51424.25;5065058;28;19986;-66
2022/12/08 01:57:17;;;;;;;;;;;;;;;-143.57;100.00;51418.28;5065578;28;20459;-66
2022/12/08 01:59:47;;;;;;;;;;;;;;;-143.57;100.00;51428.22;5061122;28;19931;-67
2022/12/08 02:02:14;;;;;;;;;;;;;;;-143.57;100.00;51426.25;5067278;28;19924;-67
2022/12/08 02:04:41;;;;;;;;;;;;;;;-143.57;100.00;51442.16;5069188;28;19928;-67
2022/12/08 02:07:08;;;;;;;;;;;;;;;-143.57;100.00;51422.25;5066689;28;19931;-67
2022/12/08 02:09:37;;;;;;;;;;;;;;;-143.57;100.00;51410.34;5068090;28;20641;-67
2022/12/08 02:12:04;;;;;;;;;;;;;;;-143.57;100.00;51410.34;5069084;28;19924;-67
2022/12/08 02:14:31;;;;;;;;;;;;;;;-143.57;100.00;51398.41;5061607;28;19932;-67
2022/12/08 02:17:20;;;;;;;;;;;;;;;-143.57;100.00;51428.22;5065616;28;20397;-67
2022/12/08 02:20:04;;;;;;;;;;;;;;;-143.57;100.00;51390.47;5067047;28;20425;-67
2022/12/08 02:22:37;;;;;;;;;;;;;;;-143.57;100.00;51454.06;5068859;28;19931;-67
2022/12/08 02:25:11;;;;;;;;;;;;;;;-143.57;100.00;51412.31;5065305;28;20006;-67
2022/12/08 02:27:44;;;;;;;;;;;;;;;-143.57;100.00;51406.34;5070540;28;20618;-67
2022/12/08 02:30:46;;;;;;;;;;;;;;;-143.57;100.00;51414.31;5070630;28;20751;-67
2022/12/08 02:33:31;;;;;;;;;;;;;;;-143.57;100.00;51426.25;5029627;28;19972;-66
2022/12/08 02:36:00;;;;;;;;;;;;;;;-143.57;100.00;51438.16;5061016;28;19932;-67
2022/12/08 02:38:32;;;;;;;;;;;;;;;-143.57;100.00;51468.00;5070587;28;19957;-67
2022/12/08 02:41:05;;;;;;;;;;;;;;;-143.57;100.00;51414.31;5069473;28;20375;-67
2022/12/08 02:43:39;;;;;;;;;;;;;;;-143.57;100.00;51404.38;5068143;28;19954;-66
2022/12/08 02:46:19;;;;;;;;;;;;;;;-143.57;100.00;51402.38;5097231;28;20448;-67
2022/12/08 02:48:46;;;;;;;;;;;;;;;-143.57;100.00;51422.25;5068305;28;19928;-67
2022/12/08 02:51:13;;;;;;;;;;;;;;;-143.57;100.00;51406.34;5062962;28;19931;-66
2022/12/08 02:53:40;;;;;;;;;;;;;;;-143.57;100.00;51410.34;5071143;28;20405;-66
2022/12/08 02:56:18;;;;;;;;;;;;;;;-143.57;100.00;51422.25;5066835;28;20031;-67
2022/12/08 02:58:45;;;;;;;;;;;;;;;-143.57;100.00;51442.16;5073802;28;19924;-67
2022/12/08 03:01:17;;;;;;;;;;;;;;;-143.57;100.00;51402.38;5071963;28;20022;-67
2022/12/08 03:03:58;;;;;;;;;;;;;;;-143.57;100.00;51450.09;5073565;28;19994;-67
2022/12/08 03:06:33;;;;;;;;;;;;;;;-143.57;100.00;51426.25;5070126;28;19929;-67
2022/12/08 03:09:09;;;;;;;;;;;;;;;-143.57;100.00;51426.25;5070626;28;19997;-67
2022/12/08 03:11:40;;;;;;;;;;;;;;;-143.57;100.00;51424.25;5071427;28;19940;-67
2022/12/08 03:14:09;;;;;;;;;;;;;;;-143.57;100.00;51454.06;5070767;28;20649;-67
2022/12/08 03:16:38;;;;;;;;;;;;;;;-143.57;100.00;51406.34;5068409;28;20525;-68
2022/12/08 03:19:08;;;;;;;;;;;;;;;-143.57;100.00;51418.28;5070515;28;20024;-67
2022/12/08 03:21:36;;;;;;;;;;;;;;;-143.57;100.00;51422.25;5058894;28;19993;-67
2022/12/08 03:24:05;;;;;;;;;;;;;;;-143.57;100.00;51446.13;5060894;28;19925;-68
2022/12/08 03:26:42;;;;;;;;;;;;;;;-143.57;100.00;51414.31;5064542;28;19954;-67
2022/12/08 03:29:09;;;;;;;;;;;;;;;-143.57;100.00;51432.19;5064449;28;19924;-67
2022/12/08 03:31:39;;;;;;;;;;;;;;;-143.57;100.00;51430.22;5063777;28;20086;-67
2022/12/08 03:34:06;;;;;;;;;;;;;;;-143.57;100.00;51406.34;5066626;28;19928;-66
2022/12/08 03:36:33;;;;;;;;;;;;;;;-143.57;100.00;51426.25;5060679;28;20313;-66
2022/12/08 03:38:59;;;;;;;;;;;;;;;-143.57;100.00;51424.25;5062820;28;19936;-66
2022/12/08 03:41:26;;;;;;;;;;;;;;;-143.57;100.00;51458.03;5066994;28;20398;-67
2022/12/08 03:43:54;;;;;;;;;;;;;;;-143.57;100.00;51434.19;5063470;28;20427;-67
2022/12/08 03:46:22;;;;;;;;;;;;;;;-143.57;100.00;51398.41;5064521;28;19929;-66
2022/12/08 03:48:48;;;;;;;;;;;;;;;-143.57;100.00;51414.31;5069550;28;22153;-66
2022/12/08 03:51:15;;;;;;;;;;;;;;;-143.57;100.00;51442.16;5067316;28;20003;-67
2022/12/08 03:53:43;;;;;;;;;;;;;;;-143.57;100.00;51414.31;5065691;28;19943;-67
2022/12/08 03:56:14;;;;;;;;;;;;;;;-143.57;100.00;51438.16;5060316;28;20027;-67
2022/12/08 03:58:41;;;;;;;;;;;;;;;-143.57;100.00;51438.16;5069401;28;20050;-67
2022/12/08 04:01:08;;;;;;;;;;;;;;;-143.57;100.00;51406.34;5064572;28;20361;-67
2022/12/08 04:03:34;;;;;;;;;;;;;;;-143.57;100.00;51422.25;5062851;28;19924;-68
2022/12/08 04:06:01;;;;;;;;;;;;;;;-143.57;100.00;51442.16;5060395;28;19932;-67
2022/12/08 04:08:28;;;;;;;;;;;;;;;-143.57;100.00;51446.13;5069272;28;19928;-67
2022/12/08 04:10:54;;;;;;;;;;;;;;;-143.57;100.00;51462.03;5063695;28;19981;-67
2022/12/08 04:13:21;;;;;;;;;;;;;;;-143.57;100.00;51400.41;5068068;28;20005;-67
2022/12/08 04:15:47;;;;;;;;;;;;;;;-143.57;100.00;51426.25;5061708;28;20006;-67
2022/12/08 04:18:23;;;;;;;;;;;;;;;-143.57;100.00;51422.25;5061424;28;20026;-67
2022/12/08 04:20:50;;;;;;;;;;;;;;;-143.57;100.00;51446.13;5062882;28;19935;-67
2022/12/08 04:23:16;;;;;;;;;;;;;;;-143.57;100.00;51454.06;5069836;28;20095;-67
2022/12/08 04:25:43;;;;;;;;;;;;;;;-143.57;100.00;51418.28;5066732;28;19950;-67
2022/12/08 04:28:10;;;;;;;;;;;;;;;-143.57;100.00;51418.28;5064979;28;20109;-67
2022/12/08 04:30:36;;;;;;;;;;;;;;;-143.57;100.00;51398.41;5067692;28;19928;-67
2022/12/08 04:33:04;;;;;;;;;;;;;;;-143.57;100.00;51410.34;5073460;28;19931;-67
2022/12/08 04:35:30;;;;;;;;;;;;;;;-143.57;100.00;51366.59;5072304;28;19928;-66
2022/12/08 04:37:57;;;;;;;;;;;;;;;-143.57;100.00;51462.03;5067089;28;20577;-66
2022/12/08 04:40:24;;;;;;;;;;;;;;;-143.57;100.00;51446.13;5068329;28;19959;-67
2022/12/08 04:42:50;;;;;;;;;;;;;;;-143.57;100.00;51418.28;5064627;28;19928;-66
2022/12/08 04:45:17;;;;;;;;;;;;;;;-143.57;100.00;51426.25;5074342;28;19971;-66
2022/12/08 04:47:44;;;;;;;;;;;;;;;-143.57;100.00;51438.16;5071959;28;20326;-66
2022/12/08 04:50:10;;;;;;;;;;;;;;;-143.57;100.00;51430.22;5067894;28;20386;-66
2022/12/08 04:52:37;;;;;;;;;;;;;;;-143.57;100.00;51402.38;5066654;28;19967;-66
2022/12/08 04:55:04;;;;;;;;;;;;;;;-143.57;100.00;51430.22;5070153;28;20436;-66
2022/12/08 04:57:31;;;;;;;;;;;;;;;-143.57;100.00;51440.16;5066310;28;19967;-67
2022/12/08 04:59:57;;;;;;;;;;;;;;;-143.57;100.00;51434.19;5065836;28;19928;-67
2022/12/08 05:02:24;;;;;;;;;;;;;;;-143.57;100.00;51446.13;5068498;28;20483;-67
2022/12/08 05:04:51;;;;;;;;;;;;;;;-143.57;100.00;51406.34;5063825;28;20414;-67
2022/12/08 05:07:17;;;;;;;;;;;;;;;-143.57;100.00;51434.19;5070201;28;19928;-67
2022/12/08 05:09:44;;;;;;;;;;;;;;;-143.57;100.00;51438.16;5068642;28;19997;-67
2022/12/08 05:12:11;;;;;;;;;;;;;;;-143.57;100.00;51430.22;5066953;28;19924;-67
2022/12/08 05:14:37;;;;;;;;;;;;;;;-143.57;100.00;51414.31;5067455;28;20001;-66
2022/12/08 05:17:04;;;;;;;;;;;;;;;-143.57;100.00;51418.28;5060694;28;20659;-67
2022/12/08 05:19:35;;;;;;;;;;;;;;;-143.57;100.00;51422.25;5062324;28;19993;-67
2022/12/08 05:22:02;;;;;;;;;;;;;;;-143.57;100.00;51378.53;5060345;28;19962;-67
2022/12/08 05:24:28;;;;;;;;;;;;;;;-143.57;100.00;51394.44;5060424;28;19932;-66
2022/12/08 05:26:55;;;;;;;;;;;;;;;-143.57;100.00;51442.16;5062515;28;19982;-66
2022/12/08 05:29:22;;;;;;;;;;;;;;;-143.57;100.00;51414.31;5057957;28;19928;-66
2022/12/08 05:31:48;;;;;;;;;;;;;;;-143.57;100.00;51430.22;5062778;28;19939;-66
2022/12/08 05:34:17;;;;;;;;;;;;;;;-143.57;100.00;51446.13;5067122;28;19932;-67
2022/12/08 05:36:43;;;;;;;;;;;;;;;-143.57;100.00;51436.19;5060449;28;20024;-67
2022/12/08 05:39:11;;;;;;;;;;;;;;;-143.57;100.00;51394.44;5063547;27;19938;-67
2022/12/08 05:41:38;;;;;;;;;;;;;;;-143.57;100.00;51414.31;5058400;28;20812;-66
2022/12/08 05:44:05;;;;;;;;;;;;;;;-143.57;100.00;51396.41;5061500;28;19989;-67
2022/12/08 05:46:32;;;;;;;;;;;;;;;-143.57;100.00;51426.25;5060670;28;20415;-66
2022/12/08 05:48:59;;;;;;;;;;;;;;;-143.57;100.00;51376.53;5064222;28;19932;-66
2022/12/08 05:51:27;;;;;;;;;;;;;;;-143.57;100.00;51440.16;5061589;28;19940;-67
2022/12/08 05:53:53;;;;;;;;;;;;;;;-143.57;100.00;51406.34;5058264;28;19984;-67
2022/12/08 05:56:20;;;;;;;;;;;;;;;-143.57;100.00;51452.09;5063902;28;19936;-67
2022/12/08 05:58:47;;;;;;;;;;;;;;;-143.57;100.00;51402.38;5060723;28;20031;-67
2022/12/08 06:01:32;;;;;;;;;;;;;;;-143.57;100.00;51402.38;5063041;27;20711;-66
2022/12/08 06:04:00;;;;;;;;;;;;;;;-143.57;100.00;51422.25;5061406;28;19924;-66
2022/12/08 06:06:27;;;;;;;;;;;;;;;-143.57;100.00;51410.34;5059157;28;19998;-65
2022/12/08 06:08:54;;;;;;;;;;;;;;;-143.57;100.00;51426.25;5058991;28;19925;-65
2022/12/08 06:11:24;;;;;;;;;;;;;;;-143.57;100.00;51406.34;5064477;28;21306;-65
2022/12/08 06:13:52;;;;;;;;;;;;;;;-143.57;100.00;51430.22;5062834;28;19928;-66
2022/12/08 06:16:18;;;;;;;;;;;;;;;-143.57;100.00;51422.25;5067064;27;20016;-66
2022/12/08 06:18:45;;;;;;;;;;;;;;;-143.57;100.00;51418.28;5057919;28;19928;-65
2022/12/08 06:21:13;;;;;;;;;;;;;;;-143.57;100.00;51434.19;5062979;28;20009;-65
2022/12/08 06:23:39;;;;;;;;;;;;;;;-143.57;100.00;51412.31;5070234;28;20197;-64
2022/12/08 06:26:07;;;;;;;;;;;;;;;-143.57;100.00;51398.41;5069622;28;19935;-64
2022/12/08 06:28:34;;;;;;;;;;;;;;;-143.57;100.00;51426.25;5071445;28;19928;-64
2022/12/08 06:31:09;;;;;;;;;;;;;;;-143.57;100.00;51446.13;5070395;28;19928;-64
2022/12/08 06:33:36;;;;;;;;;;;;;;;-143.57;100.00;51438.16;5071388;28;19932;-65
2022/12/08 06:36:04;;;;;;;;;;;;;;;-143.57;100.00;51426.25;5084181;28;20350;-63
2022/12/08 06:38:31;;;;;;;;;;;;;;;-143.57;100.00;51442.16;5073037;28;19925;-64
2022/12/08 06:40:58;;;;;;;;;;;;;;;-143.57;100.00;51444.13;5073644;28;19932;-65
2022/12/08 06:43:25;;;;;;;;;;;;;;;-143.57;100.00;51430.22;5072303;28;21116;-66
2022/12/08 06:45:52;;;;;;;;;;;;;;;-143.57;100.00;51402.38;5064370;28;19931;-65
2022/12/08 06:48:19;;;;;;;;;;;;;;;-143.57;100.00;51454.06;5072252;28;19924;-65
2022/12/08 06:50:45;;;;;;;;;;;;;;;-143.57;100.00;51420.28;5070654;27;19938;-66
2022/12/08 06:53:13;;;;;;;;;;;;;;;-143.57;100.00;51410.34;5078051;28;19932;-66
2022/12/08 06:55:43;;;;;;;;;;;;;;;-143.57;100.00;51446.13;5070286;27;19932;-67
2022/12/08 06:58:25;;;;;;;;;;;;;;;-143.57;100.00;51426.25;5066414;28;19924;-65
2022/12/08 07:00:52;;;;;;;;;;;;;;;-143.57;100.00;51414.31;5064374;28;20725;-66
2022/12/08 07:03:19;;;;;;;;;;;;;;;-143.57;100.00;51446.13;5072266;28;19928;-65
2022/12/08 07:05:46;;;;;;;;;;;;;;;-143.57;100.00;51442.16;5064471;28;20235;-66
2022/12/08 07:08:12;;;;;;;;;;;;;;;-143.57;100.00;51462.03;5068683;28;20882;-65
2022/12/08 07:10:39;;;;;;;;;;;;;;;-143.57;100.00;51438.16;5070688;28;19927;-65
2022/12/08 07:13:06;;;;;;;;;;;;;;;-143.57;100.00;51442.16;5070081;28;19974;-65
2022/12/08 07:15:32;;;;;;;;;;;;;;;-143.57;100.00;51440.16;5073720;28;20755;-65
2022/12/08 07:17:59;;;;;;;;;;;;;;;-143.57;100.00;51466.00;5067078;27;19925;-65
2022/12/08 07:20:26;;;;;;;;;;;;;;;-143.57;100.00;51430.22;5069576;28;19924;-65
2022/12/08 07:22:53;;;;;;;;;;;;;;;-143.57;100.00;51418.28;5074232;28;20024;-65
2022/12/08 07:25:19;;;;;;;;;;;;;;;-143.57;100.00;51434.19;5075125;28;19928;-65
2022/12/08 07:27:46;;;;;;;;;;;;;;;-143.57;100.00;51458.03;5069483;28;19923;-65
2022/12/08 07:30:13;;;;;;;;;;;;;;;-143.57;100.00;51442.16;5074356;28;19932;-65
2022/12/08 07:32:40;;;;;;;;;;;;;;;-143.57;100.00;51446.13;5072029;28;19962;-64
2022/12/08 07:35:07;;;;;;;;;;;;;;;-143.57;100.00;51460.03;5082788;28;19928;-65
2022/12/08 07:37:34;;;;;;;;;;;;;;;-143.57;100.00;51442.16;5072402;28;19924;-65
2022/12/08 07:40:02;;;;;;;;;;;;;;;-143.57;100.00;51454.06;5065153;28;19942;-65
2022/12/08 07:42:29;;;;;;;;;;;;;;;-143.57;100.00;51434.19;5075931;28;19981;-66
2022/12/08 07:44:55;;;;;;;;;;;;;;;-143.57;100.00;51466.00;5070312;28;19954;-66
2022/12/08 07:47:22;;;;;;;;;;;;;;;-143.57;100.00;51458.03;5060604;28;19928;-66
2022/12/08 07:49:49;;;;;;;;;;;;;;;-143.57;100.00;51434.19;5064140;28;19989;-66
2022/12/08 07:52:15;;;;;;;;;;;;;;;-143.57;100.00;51454.06;5067727;28;20635;-66
2022/12/08 07:54:42;;;;;;;;;;;;;;;-143.57;100.00;51432.19;5067148;28;19932;-66
2022/12/08 07:57:09;;;;;;;;;;;;;;;-143.57;100.00;51412.31;5074289;28;19996;-66
2022/12/08 07:59:35;;;;;;;;;;;;;;;-143.57;100.00;51444.13;5071182;28;19928;-67
2022/12/08 08:02:02;;;;;;;;;;;;;;;-143.57;100.00;51434.19;5071586;28;19928;-65
2022/12/08 08:04:49;;;;;;;;;;;;;;;-143.57;100.00;51410.34;5065698;28;19962;-65
2022/12/08 08:07:16;;;;;;;;;;;;;;;-143.57;100.00;51410.34;5069389;28;20317;-66
2022/12/08 08:09:42;;;;;;;;;;;;;;;-143.57;100.00;51418.28;5071154;28;19959;-65
2022/12/08 08:12:09;;;;;;;;;;;;;;;-143.57;100.00;51428.22;5071152;28;19978;-66
2022/12/08 08:14:55;;;;;;;;;;;;;;;-143.57;100.00;51438.16;5070094;28;19998;-66
2022/12/08 08:17:22;;;;;;;;;;;;;;;-143.57;100.00;51442.16;5074014;28;19924;-65
2022/12/08 08:19:49;;;;;;;;;;;;;;;-143.57;100.00;51430.22;5068907;28;19929;-65
2022/12/08 08:22:16;;;;;;;;;;;;;;;-143.57;100.00;51446.13;5068748;28;20654;-65
2022/12/08 08:24:42;;;;;;;;;;;;;;;-143.57;100.00;51396.41;5074068;28;19935;-66
2022/12/08 08:27:10;;;;;;;;;;;;;;;-143.57;100.00;51430.22;5069279;28;19939;-66
2022/12/08 08:29:37;;;;;;;;;;;;;;;-143.57;100.00;51454.06;5071761;28;19928;-66
2022/12/08 08:32:04;;;;;;;;;;;;;;;-143.57;100.00;51450.09;5069703;28;19928;-67
2022/12/08 08:34:31;;;;;;;;;;;;;;;-143.57;100.00;51406.34;5071074;28;19932;-66
2022/12/08 08:36:57;;;;;;;;;;;;;;;-143.57;100.00;51442.16;5064853;28;20012;-66
2022/12/08 08:39:24;;;;;;;;;;;;;;;-143.57;100.00;51444.13;5067099;28;20434;-66
2022/12/08 08:41:51;;;;;;;;;;;;;;;-143.57;100.00;51424.25;5066655;28;19983;-66
2022/12/08 08:44:17;;;;;;;;;;;;;;;-143.57;100.00;51438.16;5067382;28;20053;-66
2022/12/08 08:46:44;;;;;;;;;;;;;;;-143.57;100.00;51440.16;5067403;28;19939;-66
2022/12/08 08:49:11;;;;;;;;;;;;;;;-143.57;100.00;51426.25;5067407;28;19932;-66
2022/12/08 08:51:37;;;;;;;;;;;;;;;-143.57;100.00;51418.28;5070452;28;19927;-66
2022/12/08 08:54:04;;;;;;;;;;;;;;;-143.57;100.00;51418.28;5066944;28;19932;-66
2022/12/08 08:56:31;;;;;;;;;;;;;;;-143.57;100.00;51434.19;5068465;28;19927;-66
2022/12/08 08:58:57;;;;;;;;;;;;;;;-143.57;100.00;51410.34;5065188;28;19927;-66
2022/12/08 09:01:25;;;;;;;;;;;;;;;-143.57;100.00;51450.09;5064675;28;19924;-66
2022/12/08 09:03:53;;;;;;;;;;;;;;;-143.57;100.00;51469.97;5064625;28;20006;-66
2022/12/08 09:06:20;;;;;;;;;;;;;;;-143.57;100.00;51442.16;5067749;28;19936;-66
2022/12/08 09:08:47;;;;;;;;;;;;;;;-143.57;100.00;51430.22;5069405;28;19975;-66
2022/12/08 09:11:14;;;;;;;;;;;;;;;-143.57;100.00;51400.41;5064516;28;19982;-66
2022/12/08 09:13:41;;;;;;;;;;;;;;;-143.57;100.00;51450.09;5066785;28;20479;-66
2022/12/08 09:16:09;;;;;;;;;;;;;;;-143.57;100.00;51382.50;5072919;28;19932;-66
2022/12/08 09:18:36;;;;;;;;;;;;;;;-143.57;100.00;51434.19;5072570;28;19930;-66
2022/12/08 09:21:04;;;;;;;;;;;;;;;-143.57;100.00;51454.06;5068114;28;20375;-66
2022/12/08 09:23:31;;;;;;;;;;;;;;;-143.57;100.00;51432.19;5070118;28;20452;-66
2022/12/08 09:26:02;;;;;;;;;;;;;;;-143.57;100.00;51402.38;5068935;28;20037;-65
2022/12/08 09:28:28;;;;;;;;;;;;;;;-143.57;100.00;51442.16;5075715;28;19924;-66
2022/12/08 09:30:55;;;;;;;;;;;;;;;-143.57;100.00;51434.19;5063290;28;19973;-66
2022/12/08 09:33:22;;;;;;;;;;;;;;;-143.57;100.00;51454.06;5070248;28;19935;-66
2022/12/08 09:35:49;;;;;;;;;;;;;;;-143.57;100.00;51426.25;5067845;28;20013;-67
2022/12/08 09:38:15;;;;;;;;;;;;;;;-143.57;100.00;51430.22;5058584;28;19920;-66
2022/12/08 09:40:50;;;;;;;;;;;;;;;-143.57;100.00;51426.25;5058021;28;19928;-67
2022/12/08 09:43:36;;;;;;;;;;;;;;;-143.57;100.00;51390.47;5059882;28;19982;-66
2022/12/08 09:46:10;;;;;;;;;;;;;;;-143.57;100.00;51414.31;5059083;28;19931;-66
2022/12/08 09:48:38;;;;;;;;;;;;;;;-143.57;100.00;51442.16;5059185;28;19925;-67
2022/12/08 09:51:06;;;;;;;;;;;;;;;-143.57;100.00;51442.16;5060072;28;20575;-67
2022/12/08 09:53:41;;;;;;;;;;;;;;;-143.57;100.00;51456.06;5066143;28;19929;-67
2022/12/08 09:56:12;;;;;;;;;;;;;;;-143.57;100.00;51426.25;5062604;28;19928;-66
2022/12/08 09:58:41;;;;;;;;;;;;;;;-143.57;100.00;51430.22;5058736;28;19928;-66
2022/12/08 10:01:09;;;;;;;;;;;;;;;-143.57;100.00;51410.34;5065723;28;19928;-66
2022/12/08 10:03:36;;;;;;;;;;;;;;;-143.57;100.00;51430.22;5057631;28;19943;-66
2022/12/08 10:06:06;;;;;;;;;;;;;;;-143.57;100.00;51442.16;5058621;28;19936;-66
2022/12/08 10:08:47;;;;;;;;;;;;;;;-143.57;100.00;51422.25;5068148;28;20001;-66
2022/12/08 10:11:17;;;;;;;;;;;;;;;-143.57;100.00;51458.03;5071949;28;20017;-66
2022/12/08 10:13:59;;;;;;;;;;;;;;;-143.57;100.00;51422.25;5060302;28;19929;-66
2022/12/08 10:16:40;;;;;;;;;;;;;;;-143.57;100.00;51402.38;5064552;28;19924;-66
2022/12/08 10:19:13;;;;;;;;;;;;;;;-143.57;100.00;51430.22;5064437;28;19933;-66
2022/12/08 10:21:40;;;;;;;;;;;;;;;-143.57;100.00;51406.34;5067295;28;20013;-66
2022/12/08 10:24:29;;;;;;;;;;;;;;;-143.57;100.00;51448.09;5066609;28;19955;-67
2022/12/08 10:26:56;;;;;;;;;;;;;;;-143.57;100.00;51430.22;5065295;28;19928;-67
2022/12/08 10:29:23;;;;;;;;;;;;;;;-143.57;100.00;51458.03;5065985;28;19965;-67
2022/12/08 10:31:50;;;;;;;;;;;;;;;-143.57;100.00;51446.13;5069869;28;19971;-67
2022/12/08 10:34:18;;;;;;;;;;;;;;;-143.57;100.00;51430.22;5067487;28;20031;-67
2022/12/08 10:36:47;;;;;;;;;;;;;;;-143.57;100.00;51378.53;5066573;28;19928;-67
2022/12/08 10:39:42;;;;;;;;;;;;;;;-143.57;100.00;51432.19;5067150;28;20321;-67
2022/12/08 10:42:12;;;;;;;;;;;;;;;-143.57;100.00;51442.16;5062708;28;19929;-67
2022/12/08 10:45:01;;;;;;;;;;;;;;;-143.57;100.00;51426.25;5064147;28;19935;-67
2022/12/08 10:47:28;;;;;;;;;;;;;;;-143.57;100.00;51422.25;5065793;28;19932;-68
2022/12/08 10:50:18;;;;;;;;;;;;;;;-143.57;100.00;51418.28;5063793;28;21394;-67
2022/12/08 10:52:53;;;;;;;;;;;;;;;-143.57;100.00;51430.22;5070590;28;19928;-68
2022/12/08 10:55:20;;;;;;;;;;;;;;;-143.57;100.00;51398.41;5068741;28;20688;-68
2022/12/08 10:57:49;;;;;;;;;;;;;;;-143.57;100.00;51426.25;5061616;28;19930;-68
2022/12/08 11:00:18;;;;;;;;;;;;;;;-143.57;100.00;51392.44;5063278;28;19936;-68
2022/12/08 11:02:54;;;;;;;;;;;;;;;-143.57;100.00;51430.22;5069142;28;19935;-67
2022/12/08 11:05:22;;;;;;;;;;;;;;;-143.57;100.00;51394.44;5067000;28;19931;-67
2022/12/08 11:07:50;;;;;;;;;;;;;;;-143.57;100.00;51418.28;5058423;28;20370;-68
2022/12/08 11:10:18;;;;;;;;;;;;;;;-143.57;100.00;51426.25;5066197;28;19929;-69
2022/12/08 11:12:45;;;;;;;;;;;;;;;-143.57;100.00;51410.34;5056888;28;19963;-67
2022/12/08 11:15:16;;;;;;;;;;;;;;;-143.57;100.00;51422.25;5061655;28;19932;-68
2022/12/08 11:17:46;;;;;;;;;;;;;;;-143.57;100.00;51436.19;5060826;28;19928;-67
2022/12/08 11:20:20;;;;;;;;;;;;;;;-143.57;100.00;51410.34;5067238;28;19928;-67
2022/12/08 11:22:54;;;;;;;;;;;;;;;-143.57;100.00;51422.25;5060696;28;19966;-67
2022/12/08 11:25:23;;;;;;;;;;;;;;;-143.57;100.00;51426.25;5063590;28;20311;-71
2022/12/08 11:27:51;;;;;;;;;;;;;;;-143.57;100.00;51414.31;5059306;28;19935;-68
2022/12/08 11:30:20;;;;;;;;;;;;;;;-143.57;100.00;51392.44;5062346;28;19940;-67
2022/12/08 11:32:55;;;;;;;;;;;;;;;-143.57;100.00;51398.41;5067163;28;19935;-67
2022/12/08 11:35:25;;;;;;;;;;;;;;;-143.57;100.00;51394.44;5069165;28;19940;-67
2022/12/08 11:37:54;;;;;;;;;;;;;;;-143.57;100.00;51394.44;5069338;28;20479;-67
2022/12/08 11:40:43;;;;;;;;;;;;;;;-143.57;100.00;51402.38;5068682;28;20058;-67
2022/12/08 11:43:27;;;;;;;;;;;;;;;-143.57;100.00;51434.19;5068316;28;20028;-68
2022/12/08 11:46:16;;;;;;;;;;;;;;;-143.57;100.00;51406.34;5073288;28;20423;-67
2022/12/08 11:48:45;;;;;;;;;;;;;;;-143.57;100.00;51404.38;5067360;28;19925;-67
2022/12/08 11:51:23;;;;;;;;;;;;;;;-143.57;100.00;51430.22;5069384;28;20460;-67
2022/12/08 11:53:58;;;;;;;;;;;;;;;-143.57;100.00;51418.28;5069239;28;19929;-67
2022/12/08 11:56:36;;;;;;;;;;;;;;;-143.57;100.00;51410.34;5073680;28;19924;-68
2022/12/08 11:59:09;;;;;;;;;;;;;;;-143.57;100.00;51422.25;5067650;28;19935;-67
2022/12/08 12:01:36;;;;;;;;;;;;;;;-143.57;100.00;51378.53;5067559;28;19928;-68
2022/12/08 12:04:30;;;;;;;;;;;;;;;-143.57;100.00;51398.41;5067903;28;19938;-68
2022/12/08 12:07:25;;;;;;;;;;;;;;;-143.57;100.00;51422.25;5061703;28;19929;-68
2022/12/08 12:10:07;;;;;;;;;;;;;;;-143.57;100.00;51374.56;5059245;28;20435;-67
2022/12/08 12:12:34;;;;;;;;;;;;;;;-143.57;100.00;51432.19;5060767;28;19963;-67
2022/12/08 12:15:24;;;;;;;;;;;;;;;-143.57;100.00;51388.47;5066461;28;19929;-67
2022/12/08 12:18:11;;;;;;;;;;;;;;;-143.57;100.00;51410.34;5062713;28;19936;-67
2022/12/08 12:20:53;;;;;;;;;;;;;;;-143.57;100.00;51370.56;5056705;28;20053;-67
2022/12/08 12:23:28;;;;;;;;;;;;;;;-143.57;100.00;51378.53;5063675;28;19986;-67
2022/12/08 12:25:56;;;;;;;;;;;;;;;-143.57;100.00;51378.53;5061719;28;19935;-66
2022/12/08 12:28:25;;;;;;;;;;;;;;;-143.57;100.00;51436.19;5061123;28;19935;-67
2022/12/08 12:31:04;;;;;;;;;;;;;;;-143.57;100.00;51422.25;5063007;28;19936;-67
2022/12/08 12:33:31;;;;;;;;;;;;;;;-143.57;100.00;51386.47;5061063;28;19935;-67
2022/12/08 12:36:01;;;;;;;;;;;;;;;-143.57;100.00;51396.41;5064706;28;20005;-67